createdAt,value
2019-02-11T00:01:39.591Z,99337.39
2019-02-11T00:04:08.842Z,99341.47
2019-02-11T00:06:38.109Z,99355.39
2019-02-11T00:09:09.481Z,99355.28
2019-02-11T00:11:38.809Z,99360.91
2019-02-11T00:14:07.997Z,99363.23
2019-02-11T00:16:37.224Z,99374.86
2019-02-11T00:19:06.322Z,99379.43
2019-02-11T00:21:35.384Z,99373.23
2019-02-11T00:24:04.559Z,99376.73
2019-02-11T00:26:33.897Z,99378.11
2019-02-11T00:29:03.132Z,99388.53
2019-02-11T00:31:32.271Z,99385.80
2019-02-11T00:34:01.610Z,99377.73
2019-02-11T00:36:30.926Z,99381.98
2019-02-11T00:39:00.224Z,99390.47
2019-02-11T00:41:29.348Z,99393.66
2019-02-11T00:43:58.392Z,99402.03
2019-02-11T00:46:27.608Z,99409.67
2019-02-11T00:48:58.906Z,99403.62
2019-02-11T00:51:28.000Z,99416.93
2019-02-11T00:53:57.238Z,99418.38
2019-02-11T00:56:26.426Z,99421.46
2019-02-11T00:58:55.484Z,99423.78
2019-02-11T01:01:24.856Z,99424.92
2019-02-11T01:03:54.109Z,99427.77
2019-02-11T01:06:23.402Z,99432.83
2019-02-11T01:08:52.568Z,99429.90
2019-02-11T01:11:21.827Z,99433.84
2019-02-11T01:13:51.648Z,99441.22
2019-02-11T01:16:21.108Z,99445.06
2019-02-11T01:18:50.837Z,99446.84
2019-02-11T01:21:19.930Z,99446.66
2019-02-11T01:23:49.026Z,99440.84
2019-02-11T01:26:18.100Z,99434.50
2019-02-11T01:28:47.385Z,99431.42
2019-02-11T01:31:16.620Z,99443.66
2019-02-11T01:33:45.806Z,99432.25
2019-02-11T01:36:14.904Z,99425.38
2019-02-11T01:38:44.171Z,99424.73
2019-02-11T01:41:13.391Z,99424.73
2019-02-11T01:43:42.641Z,99425.88
2019-02-11T01:46:11.713Z,99427.73
2019-02-11T01:48:40.987Z,99439.97
2019-02-11T01:51:10.403Z,99434.34
2019-02-11T01:53:39.525Z,99439.97
2019-02-11T01:56:08.804Z,99433.77
2019-02-11T01:58:38.100Z,99449.55
2019-02-11T02:01:07.501Z,99448.41
2019-02-11T02:03:36.629Z,99445.33
2019-02-11T02:06:05.731Z,99455.78
2019-02-11T02:08:34.802Z,99457.68
2019-02-11T02:11:04.207Z,99468.20
2019-02-11T02:13:33.315Z,99486.93
2019-02-11T02:16:02.494Z,99502.25
2019-02-11T02:18:31.666Z,99512.42
2019-02-11T02:21:00.804Z,99513.87
2019-02-11T02:23:30.226Z,99531.05
2019-02-11T02:26:01.362Z,99540.17
2019-02-11T02:28:30.631Z,99533.59
2019-02-11T02:30:59.724Z,99547.12
2019-02-11T02:33:28.911Z,99566.91
2019-02-11T02:35:58.275Z,99556.45
2019-02-11T02:38:27.408Z,99572.41
2019-02-11T02:40:56.655Z,99574.80
2019-02-11T02:43:25.744Z,99579.09
2019-02-11T02:45:55.352Z,99582.05
2019-02-11T02:48:24.439Z,99572.22
2019-02-11T02:50:53.523Z,99576.86
2019-02-11T02:53:22.712Z,99579.99
2019-02-11T02:55:51.889Z,99573.55
2019-02-11T02:58:21.187Z,99582.48
2019-02-11T03:00:50.659Z,99582.30
2019-02-11T03:03:19.777Z,99583.02
2019-02-11T03:05:48.931Z,99586.59
2019-02-11T03:08:18.089Z,99590.65
2019-02-11T03:10:47.221Z,99591.48
2019-02-11T03:13:16.622Z,99592.03
2019-02-11T03:15:45.709Z,99604.13
2019-02-11T03:18:15.059Z,99608.71
2019-02-11T03:20:44.336Z,99618.73
2019-02-11T03:23:13.514Z,99621.59
2019-02-11T03:25:42.678Z,99627.73
2019-02-11T03:28:11.831Z,99630.39
2019-02-11T03:30:41.001Z,99634.02
2019-02-11T03:33:10.436Z,99640.47
2019-02-11T03:35:39.520Z,99645.00
2019-02-11T03:38:08.707Z,99644.68
2019-02-11T03:40:38.246Z,99650.27
2019-02-11T03:43:07.453Z,99656.95
2019-02-11T03:45:36.604Z,99644.50
2019-02-11T03:48:05.712Z,99656.50
2019-02-11T03:50:34.939Z,99664.83
2019-02-11T03:53:04.000Z,99667.72
2019-02-11T03:55:33.281Z,99671.48
2019-02-11T03:58:02.521Z,99675.16
2019-02-11T04:00:31.828Z,99680.70
2019-02-11T04:03:01.105Z,99684.47
2019-02-11T04:05:30.154Z,99684.47
2019-02-11T04:07:59.359Z,99702.67
2019-02-11T04:10:28.627Z,99699.04
2019-02-11T04:12:58.023Z,99701.03
2019-02-11T04:15:27.108Z,99708.03
2019-02-11T04:17:56.210Z,99716.27
2019-02-11T04:20:25.524Z,99716.09
2019-02-11T04:22:54.835Z,99726.05
2019-02-11T04:25:23.903Z,99730.58
2019-02-11T04:27:53.131Z,99736.07
2019-02-11T04:30:22.477Z,99736.61
2019-02-11T04:32:51.557Z,99744.66
2019-02-11T04:35:21.160Z,99738.91
2019-02-11T04:37:50.210Z,99738.91
2019-02-11T04:40:19.423Z,99747.91
2019-02-11T04:42:48.509Z,99760.62
2019-02-11T04:45:17.778Z,99767.05
2019-02-11T04:47:47.001Z,99770.41
2019-02-11T04:50:16.144Z,99781.10
2019-02-11T04:52:45.359Z,99785.39
2019-02-11T04:55:15.122Z,99792.18
2019-02-11T04:57:44.218Z,99799.52
2019-02-11T05:00:13.445Z,99806.31
2019-02-11T05:02:42.514Z,99803.34
2019-02-11T05:05:11.697Z,99807.52
2019-02-11T05:07:40.761Z,99817.52
2019-02-11T05:10:12.052Z,99827.80
2019-02-11T05:12:41.322Z,99825.63
2019-02-11T05:15:11.352Z,99826.61
2019-02-11T05:17:40.465Z,99831.57
2019-02-11T05:20:09.904Z,99841.89
2019-02-11T05:22:39.001Z,99836.89
2019-02-11T05:25:08.674Z,99839.23
2019-02-11T05:27:37.778Z,99850.33
2019-02-11T05:30:07.030Z,99847.22
2019-02-11T05:32:36.256Z,99859.95
2019-02-11T05:35:06.281Z,99845.53
2019-02-11T05:37:35.608Z,99853.86
2019-02-11T05:40:05.589Z,99860.47
2019-02-11T05:42:34.876Z,99861.84
2019-02-11T05:45:03.983Z,99864.46
2019-02-11T05:47:33.186Z,99869.95
2019-02-11T05:50:02.301Z,99870.23
2019-02-11T05:52:31.458Z,99883.70
2019-02-11T05:55:00.862Z,99872.09
2019-02-11T05:57:30.180Z,99896.30
2019-02-11T05:59:59.417Z,99897.62
2019-02-11T06:02:28.604Z,99897.53
2019-02-11T06:05:00.653Z,99907.84
2019-02-11T06:07:30.134Z,99916.00
2019-02-11T06:09:59.183Z,99930.56
2019-02-11T06:12:28.287Z,99931.92
2019-02-11T06:15:03.949Z,99940.63
2019-02-11T06:17:28.629Z,99952.25
2019-02-11T06:19:57.841Z,99949.38
2019-02-11T06:22:27.095Z,99956.66
2019-02-11T06:24:56.381Z,99954.84
2019-02-11T06:27:26.531Z,99969.47
2019-02-11T06:29:55.807Z,99971.98
2019-02-11T06:32:25.064Z,99973.60
2019-02-11T06:34:54.876Z,99978.78
2019-02-11T06:37:23.934Z,99989.77
2019-02-11T06:39:53.044Z,100002.74
2019-02-11T06:42:22.107Z,100008.06
2019-02-11T06:44:51.180Z,100012.56
2019-02-11T06:47:20.384Z,100012.56
2019-02-11T06:49:50.451Z,100011.92
2019-02-11T06:52:19.816Z,100027.05
2019-02-11T06:54:49.188Z,100040.17
2019-02-11T06:57:18.656Z,100051.61
2019-02-11T06:59:47.772Z,100056.33
2019-02-11T07:02:17.219Z,100057.97
2019-02-11T07:04:46.308Z,100057.97
2019-02-11T07:07:15.387Z,100072.93
2019-02-11T07:09:45.249Z,100091.87
2019-02-11T07:12:14.524Z,100101.83
2019-02-11T07:14:43.831Z,100110.49
2019-02-11T07:17:12.916Z,100118.64
2019-02-11T07:19:42.157Z,100125.13
2019-02-11T07:22:11.527Z,100128.13
2019-02-11T07:24:40.696Z,100135.39
2019-02-11T07:27:09.949Z,100138.41
2019-02-11T07:29:39.084Z,100147.55
2019-02-11T07:32:08.320Z,100155.17
2019-02-11T07:34:37.521Z,100153.33
2019-02-11T07:37:06.941Z,100169.63
2019-02-11T07:39:36.106Z,100169.63
2019-02-11T07:42:17.918Z,100179.92
2019-02-11T07:44:53.784Z,100182.94
2019-02-11T07:47:23.002Z,100185.26
2019-02-11T07:49:52.274Z,100194.06
2019-02-11T07:52:26.733Z,100196.05
2019-02-11T07:54:52.797Z,100201.88
2019-02-11T07:57:22.095Z,100204.36
2019-02-11T07:59:51.371Z,100204.36
2019-02-11T08:02:20.494Z,100211.83
2019-02-11T08:04:49.591Z,100213.34
2019-02-11T08:07:18.831Z,100210.86
2019-02-11T08:09:48.241Z,100225.79
2019-02-11T08:12:17.324Z,100225.15
2019-02-11T08:14:46.644Z,100227.80
2019-02-11T08:17:15.821Z,100234.43
2019-02-11T08:19:45.069Z,100241.58
2019-02-11T08:22:14.224Z,100246.25
2019-02-11T08:24:43.402Z,100248.89
2019-02-11T08:27:12.639Z,100248.39
2019-02-11T08:29:42.043Z,100256.54
2019-02-11T08:32:11.284Z,100263.67
2019-02-11T08:34:40.393Z,100269.16
2019-02-11T08:37:09.542Z,100273.98
2019-02-11T08:39:40.574Z,100274.31
2019-02-11T08:42:10.108Z,100285.94
2019-02-11T08:44:39.264Z,100290.78
2019-02-11T08:47:08.354Z,100292.94
2019-02-11T08:49:37.661Z,100300.56
2019-02-11T08:52:06.779Z,100301.91
2019-02-11T08:54:36.029Z,100308.06
2019-02-11T08:57:05.246Z,100312.19
2019-02-11T08:59:34.383Z,100317.04
2019-02-11T09:02:03.731Z,100320.19
2019-02-11T09:04:32.973Z,100327.70
2019-02-11T09:07:02.082Z,100330.83
2019-02-11T09:09:31.371Z,100337.31
2019-02-11T09:12:00.703Z,100340.88
2019-02-11T09:14:31.018Z,100346.84
2019-02-11T09:17:00.819Z,100345.78
2019-02-11T09:19:30.310Z,100347.55
2019-02-11T09:22:07.246Z,100358.61
2019-02-11T09:24:30.486Z,100363.27
2019-02-11T09:26:59.793Z,100370.43
2019-02-11T09:29:29.063Z,100362.48
2019-02-11T09:31:58.347Z,100366.50
2019-02-11T09:34:27.449Z,100367.00
2019-02-11T09:36:56.724Z,100369.47
2019-02-11T09:39:25.926Z,100392.59
2019-02-11T09:41:55.127Z,100394.44
2019-02-11T09:44:29.704Z,100395.58
2019-02-11T09:46:56.532Z,100397.56
2019-02-11T09:49:25.932Z,100405.66
2019-02-11T09:51:55.026Z,100403.50
2019-02-11T09:54:24.139Z,100409.89
2019-02-11T09:56:53.349Z,100411.27
2019-02-11T09:59:22.576Z,100416.73
2019-02-11T10:01:51.832Z,100425.10
2019-02-11T10:04:21.020Z,100437.84
2019-02-11T10:06:50.404Z,100440.02
2019-02-11T10:09:19.840Z,100453.05
2019-02-11T10:11:49.438Z,100455.86
2019-02-11T10:14:18.936Z,100463.06
2019-02-11T10:16:48.241Z,100457.45
2019-02-11T10:19:17.277Z,100461.48
2019-02-11T10:21:46.727Z,100465.14
2019-02-11T10:24:15.845Z,100471.42
2019-02-11T10:26:45.061Z,100478.30
2019-02-11T10:29:14.334Z,100488.34
2019-02-11T10:31:43.501Z,100492.83
2019-02-11T10:34:12.795Z,100480.05
2019-02-11T10:36:42.355Z,100506.86
2019-02-11T10:39:11.450Z,100504.27
2019-02-11T10:41:40.575Z,100513.44
2019-02-11T10:44:09.779Z,100524.22
2019-02-11T10:46:38.894Z,100524.08
2019-02-11T10:49:08.211Z,100530.32
2019-02-11T10:51:37.270Z,100528.98
2019-02-11T10:54:06.560Z,100532.82
2019-02-11T10:56:35.774Z,100541.83
2019-02-11T10:59:04.857Z,100555.45
2019-02-11T11:01:34.185Z,100545.87
2019-02-11T11:04:03.504Z,100548.43
2019-02-11T11:06:32.695Z,100558.91
2019-02-11T11:09:01.909Z,100559.72
2019-02-11T11:11:31.088Z,100557.17
2019-02-11T11:14:00.208Z,100558.33
2019-02-11T11:16:30.006Z,100569.53
2019-02-11T11:18:59.231Z,100561.78
2019-02-11T11:21:28.337Z,100580.16
2019-02-11T11:23:57.473Z,100581.52
2019-02-11T11:26:26.706Z,100581.39
2019-02-11T11:28:55.798Z,100590.95
2019-02-11T11:31:26.638Z,100581.66
2019-02-11T11:33:56.014Z,100592.84
2019-02-11T11:36:25.106Z,100591.88
2019-02-11T11:38:54.393Z,100589.83
2019-02-11T11:41:24.657Z,100590.20
2019-02-11T11:43:53.899Z,100598.19
2019-02-11T11:46:23.161Z,100598.20
2019-02-11T11:48:52.507Z,100597.69
2019-02-11T11:51:21.695Z,100604.55
2019-02-11T11:53:50.773Z,100610.37
2019-02-11T11:56:20.305Z,100606.33
2019-02-11T11:58:49.544Z,100611.00
2019-02-11T12:01:19.667Z,100598.30
2019-02-11T12:03:49.549Z,100609.97
2019-02-11T12:06:19.164Z,100606.63
2019-02-11T12:08:48.223Z,100610.63
2019-02-11T12:11:18.265Z,100604.66
2019-02-11T12:13:47.337Z,100607.30
2019-02-11T12:16:16.649Z,100617.94
2019-02-11T12:18:45.770Z,100620.60
2019-02-11T12:21:15.086Z,100628.73
2019-02-11T12:23:44.182Z,100629.41
2019-02-11T12:26:13.648Z,100633.21
2019-02-11T12:28:42.777Z,100643.38
2019-02-11T12:31:11.947Z,100637.23
2019-02-11T12:33:41.448Z,100633.61
2019-02-11T12:36:10.740Z,100631.60
2019-02-11T12:38:41.778Z,100640.04
2019-02-11T12:41:10.942Z,100641.13
2019-02-11T12:43:39.999Z,100637.86
2019-02-11T12:46:09.698Z,100640.28
2019-02-11T12:48:38.857Z,100631.77
2019-02-11T12:51:08.037Z,100632.61
2019-02-11T12:53:37.090Z,100634.53
2019-02-11T12:56:06.315Z,100631.25
2019-02-11T12:58:35.480Z,100642.83
2019-02-11T13:01:04.667Z,100640.33
2019-02-11T13:03:34.047Z,100637.69
2019-02-11T13:06:03.234Z,100625.52
2019-02-11T13:08:32.331Z,100637.20
2019-02-11T13:11:01.840Z,100633.02
2019-02-11T13:13:31.036Z,100640.36
2019-02-11T13:16:02.838Z,100640.13
2019-02-11T13:18:31.552Z,100642.57
2019-02-11T13:21:01.260Z,100652.34
2019-02-11T13:23:30.419Z,100659.20
2019-02-11T13:26:01.803Z,100672.03
2019-02-11T13:28:31.077Z,100671.56
2019-02-11T13:31:00.499Z,100679.09
2019-02-11T13:33:29.701Z,100685.64
2019-02-11T13:35:58.802Z,100689.80
2019-02-11T13:38:27.952Z,100697.15
2019-02-11T13:40:57.487Z,100702.66
2019-02-11T13:43:26.687Z,100702.69
2019-02-11T13:45:55.776Z,100700.51
2019-02-11T13:48:24.953Z,100699.36
2019-02-11T13:50:54.262Z,100708.37
2019-02-11T13:53:23.389Z,100717.39
2019-02-11T13:55:53.403Z,100714.23
2019-02-11T13:58:22.512Z,100716.04
2019-02-11T14:00:51.663Z,100719.89
2019-02-11T14:03:21.243Z,100719.59
2019-02-11T14:05:50.334Z,100718.25
2019-02-11T14:08:19.548Z,100727.39
2019-02-11T14:10:49.070Z,100722.56
2019-02-11T14:13:18.719Z,100725.89
2019-02-11T14:15:48.076Z,100733.90
2019-02-11T14:18:17.522Z,100735.22
2019-02-11T14:20:49.917Z,100733.05
2019-02-11T14:23:18.062Z,100729.89
2019-02-11T14:25:47.844Z,100736.05
2019-02-11T14:28:17.394Z,100746.88
2019-02-11T14:30:47.253Z,100755.08
2019-02-11T14:33:16.986Z,100751.06
2019-02-11T14:35:47.137Z,100752.56
2019-02-11T14:38:16.748Z,100760.58
2019-02-11T14:40:46.275Z,100773.77
2019-02-11T14:43:15.475Z,100759.90
2019-02-11T14:45:44.733Z,100771.77
2019-02-11T14:48:26.679Z,100777.78
2019-02-11T14:50:46.242Z,100789.27
2019-02-11T14:53:15.382Z,100794.11
2019-02-11T14:55:44.739Z,100801.14
2019-02-11T14:58:14.532Z,100807.81
2019-02-11T15:00:43.818Z,100809.98
2019-02-11T15:03:13.084Z,100812.48
2019-02-11T15:05:42.716Z,100824.14
2019-02-11T15:08:11.925Z,100827.01
2019-02-11T15:10:43.055Z,100823.16
2019-02-11T15:13:12.295Z,100824.66
2019-02-11T15:15:41.426Z,100821.31
2019-02-11T15:18:10.656Z,100827.01
2019-02-11T15:20:39.923Z,100847.03
2019-02-11T15:23:09.051Z,100850.03
2019-02-11T15:25:38.260Z,100858.69
2019-02-11T15:28:07.368Z,100865.36
2019-02-11T15:30:36.460Z,100873.88
2019-02-11T15:33:05.853Z,100882.19
2019-02-11T15:35:34.985Z,100884.17
2019-02-11T15:38:04.218Z,100883.56
2019-02-11T15:40:33.523Z,100882.80
2019-02-11T15:43:03.052Z,100873.88
2019-02-11T15:45:32.742Z,100877.17
2019-02-11T15:48:01.933Z,100882.04
2019-02-11T15:50:31.200Z,100886.67
2019-02-11T15:53:00.408Z,100879.85
2019-02-11T15:55:31.689Z,100881.00
2019-02-11T15:58:01.002Z,100879.38
2019-02-11T16:00:30.285Z,100882.90
2019-02-11T16:02:59.477Z,100885.56
2019-02-11T16:05:28.699Z,100901.78
2019-02-11T16:07:57.804Z,100908.13
2019-02-11T16:10:27.556Z,100911.12
2019-02-11T16:12:57.249Z,100908.28
2019-02-11T16:15:26.399Z,100917.98
2019-02-11T16:17:55.497Z,100925.82
2019-02-11T16:20:24.842Z,100934.30
2019-02-11T16:22:53.910Z,100944.81
2019-02-11T16:25:23.308Z,100951.80
2019-02-11T16:27:52.512Z,100953.50
2019-02-11T16:30:21.807Z,100952.48
2019-02-11T16:32:50.982Z,100947.70
2019-02-11T16:35:20.155Z,100953.34
2019-02-11T16:37:49.406Z,100954.85
2019-02-11T16:40:20.983Z,100960.31
2019-02-11T16:42:50.571Z,100961.59
2019-02-11T16:45:20.137Z,100969.03
2019-02-11T16:47:49.335Z,100970.34
2019-02-11T16:50:18.595Z,100978.17
2019-02-11T16:52:47.737Z,100976.86
2019-02-11T16:55:16.838Z,100987.84
2019-02-11T16:57:46.322Z,100997.38
2019-02-11T17:00:17.097Z,100992.00
2019-02-11T17:02:46.999Z,100986.72
2019-02-11T17:05:16.046Z,100991.91
2019-02-11T17:07:45.327Z,100998.03
2019-02-11T17:10:14.863Z,101006.33
2019-02-11T17:12:44.244Z,101016.44
2019-02-11T17:15:15.311Z,101032.41
2019-02-11T17:17:44.608Z,101042.78
2019-02-11T17:20:15.369Z,101043.80
2019-02-11T17:22:44.611Z,101049.98
2019-02-11T17:25:14.383Z,101053.67
2019-02-11T17:27:43.533Z,101063.84
2019-02-11T17:30:15.924Z,101063.52
2019-02-11T17:32:45.085Z,101067.45
2019-02-11T17:35:14.320Z,101070.31
2019-02-11T17:37:43.442Z,101076.57
2019-02-11T17:40:14.462Z,101075.05
2019-02-11T17:42:45.051Z,101070.47
2019-02-11T17:45:17.258Z,101080.33
2019-02-11T17:47:49.184Z,101086.22
2019-02-11T17:50:18.807Z,101085.80
2019-02-11T17:52:50.379Z,101085.42
2019-02-11T17:55:22.974Z,101086.20
2019-02-11T17:57:53.086Z,101089.00
2019-02-11T18:00:32.427Z,101096.61
2019-02-11T18:03:02.546Z,101107.54
2019-02-11T18:05:32.343Z,101109.38
2019-02-11T18:08:03.631Z,101114.77
2019-02-11T18:10:32.828Z,101111.23
2019-02-11T18:13:04.509Z,101109.38
2019-02-11T18:15:34.011Z,101110.87
2019-02-11T18:18:03.448Z,101124.20
2019-02-11T18:20:33.567Z,101123.41
2019-02-11T18:23:06.367Z,101121.53
2019-02-11T18:25:35.886Z,101122.98
2019-02-11T18:28:05.179Z,101131.66
2019-02-11T18:30:34.494Z,101130.66
2019-02-11T18:33:03.889Z,101139.23
2019-02-11T18:35:33.648Z,101146.08
2019-02-11T18:38:02.896Z,101157.48
2019-02-11T18:40:32.215Z,101169.78
2019-02-11T18:43:01.373Z,101172.59
2019-02-11T18:45:30.523Z,101183.44
2019-02-11T18:47:59.655Z,101188.92
2019-02-11T18:50:28.917Z,101190.95
2019-02-11T18:52:59.973Z,101191.37
2019-02-11T18:55:29.470Z,101188.12
2019-02-11T18:57:58.800Z,101196.66
2019-02-11T19:00:27.992Z,101209.09
2019-02-11T19:02:58.657Z,101213.42
2019-02-11T19:05:28.127Z,101219.83
2019-02-11T19:07:57.521Z,101228.33
2019-02-11T19:10:26.831Z,101225.81
2019-02-11T19:12:56.235Z,101231.78
2019-02-11T19:15:25.948Z,101237.25
2019-02-11T19:17:55.172Z,101250.16
2019-02-11T19:20:24.558Z,101261.23
2019-02-11T19:22:54.307Z,101266.27
2019-02-11T19:25:23.656Z,101270.55
2019-02-11T19:27:53.331Z,101278.73
2019-02-11T19:30:23.263Z,101280.50
2019-02-11T19:32:54.405Z,101281.90
2019-02-11T19:35:23.594Z,101286.23
2019-02-11T19:37:59.734Z,101302.38
2019-02-11T19:40:28.905Z,101306.03
2019-02-11T19:42:58.524Z,101320.84
2019-02-11T19:45:28.083Z,101324.56
2019-02-11T19:47:57.555Z,101339.88
2019-02-11T19:50:26.980Z,101362.78
2019-02-11T19:52:56.133Z,101381.86
2019-02-11T19:55:25.402Z,101389.54
2019-02-11T19:57:54.567Z,101391.96
2019-02-11T20:00:23.725Z,101385.59
2019-02-11T20:02:52.874Z,101386.30
2019-02-11T20:05:22.344Z,101397.39
2019-02-11T20:07:52.117Z,101403.28
2019-02-11T20:10:21.593Z,101419.13
2019-02-11T20:12:50.763Z,101416.52
2019-02-11T20:15:21.672Z,101396.63
2019-02-11T20:17:51.103Z,101356.85
2019-02-11T20:20:21.993Z,101356.85
2019-02-11T20:22:51.509Z,101365.92
2019-02-11T20:25:21.047Z,101365.92
2019-02-11T20:27:50.401Z,101376.22
2019-02-11T20:30:22.122Z,101373.97
2019-02-11T20:32:51.498Z,101377.95
2019-02-11T20:35:20.844Z,101381.16
2019-02-11T20:37:50.160Z,101384.09
2019-02-11T20:40:20.797Z,101388.24
2019-02-11T20:42:50.238Z,101387.73
2019-02-11T20:45:24.376Z,101398.57
2019-02-11T20:47:53.537Z,101394.30
2019-02-11T20:50:22.767Z,101400.50
2019-02-11T20:52:51.937Z,101405.47
2019-02-11T20:55:21.208Z,101412.33
2019-02-11T20:57:51.271Z,101401.09
2019-02-11T21:00:22.326Z,101408.05
2019-02-11T21:02:51.626Z,101411.86
2019-02-11T21:05:20.872Z,101413.25
2019-02-11T21:07:53.120Z,101410.92
2019-02-11T21:10:22.697Z,101403.14
2019-02-11T21:12:51.879Z,101420.20
2019-02-11T21:15:21.123Z,101428.73
2019-02-11T21:17:50.228Z,101425.28
2019-02-11T21:20:31.150Z,101413.51
2019-02-11T21:23:00.451Z,101412.23
2019-02-11T21:25:29.560Z,101409.84
2019-02-11T21:27:58.724Z,101404.59
2019-02-11T21:30:28.064Z,101404.34
2019-02-11T21:32:57.246Z,101405.19
2019-02-11T21:35:26.790Z,101407.98
2019-02-11T21:37:57.647Z,101403.67
2019-02-11T21:40:26.776Z,101400.59
2019-02-11T21:42:56.114Z,101385.66
2019-02-11T21:45:25.791Z,101389.30
2019-02-11T21:47:55.283Z,101396.28
2019-02-11T21:50:27.068Z,101396.28
2019-02-11T21:52:56.611Z,101406.73
2019-02-11T21:55:26.634Z,101406.73
2019-02-11T21:57:56.018Z,101420.52
2019-02-11T22:00:25.164Z,101419.38
2019-02-11T22:02:54.706Z,101421.55
2019-02-11T22:05:23.796Z,101424.47
2019-02-11T22:07:53.168Z,101422.20
2019-02-11T22:10:22.534Z,101417.35
2019-02-11T22:12:51.641Z,101436.87
2019-02-11T22:15:20.967Z,101436.87
2019-02-11T22:17:50.620Z,101459.29
2019-02-11T22:20:20.039Z,101469.17
2019-02-11T22:22:49.227Z,101481.84
2019-02-11T22:25:18.293Z,101494.13
2019-02-11T22:27:47.549Z,101494.13
2019-02-11T22:30:19.697Z,101505.56
2019-02-11T22:32:48.947Z,101514.48
2019-02-11T22:35:18.345Z,101517.95
2019-02-11T22:37:48.243Z,101506.64
2019-02-11T22:40:17.554Z,101520.67
2019-02-11T22:42:46.820Z,101520.67
2019-02-11T22:45:17.971Z,101530.59
2019-02-11T22:47:47.509Z,101528.06
2019-02-11T22:50:16.669Z,101527.50
2019-02-11T22:52:45.945Z,101521.81
2019-02-11T22:55:14.998Z,101522.56
2019-02-11T22:57:44.089Z,101538.52
2019-02-11T23:01:03.936Z,101542.36
2019-02-11T23:03:35.199Z,101542.36
2019-02-11T23:06:05.021Z,101546.70
2019-02-11T23:08:34.187Z,101548.63
2019-02-11T23:11:03.410Z,101548.63
2019-02-11T23:13:32.565Z,101552.10
2019-02-11T23:16:01.692Z,101543.03
2019-02-11T23:18:30.805Z,101543.03
2019-02-11T23:20:59.938Z,101547.97
2019-02-11T23:23:29.153Z,101545.22
2019-02-11T23:25:58.278Z,101554.98
2019-02-11T23:28:27.580Z,101554.98
2019-02-11T23:30:56.700Z,101565.55
2019-02-11T23:33:25.998Z,101565.55
2019-02-11T23:35:55.115Z,101573.45
2019-02-11T23:38:24.376Z,101583.50
2019-02-11T23:40:53.602Z,101591.20
2019-02-11T23:43:22.700Z,101591.20
2019-02-11T23:45:52.026Z,101602.19
2019-02-11T23:48:21.300Z,101602.19
2019-02-11T23:50:50.459Z,101613.51
2019-02-11T23:53:19.748Z,101613.51
2019-02-11T23:55:49.200Z,101603.39
2019-02-11T23:58:18.293Z,101603.39
